createdAt,value
2018-03-24T00:01:51.186Z,6.83
2018-03-24T00:04:23.726Z,6.87
2018-03-24T00:06:56.382Z,7.30
2018-03-24T00:09:29.719Z,7.63
2018-03-24T00:12:02.915Z,7.10
2018-03-24T00:14:36.133Z,7.17
2018-03-24T00:17:10.546Z,6.53
2018-03-24T00:19:43.268Z,7.70
2018-03-24T00:22:17.082Z,7.47
2018-03-24T00:24:49.792Z,7.43
2018-03-24T00:27:22.327Z,6.67
2018-03-24T00:29:54.701Z,7.90
2018-03-24T00:32:27.427Z,7.20
2018-03-24T00:35:00.022Z,7.23
2018-03-24T00:37:32.518Z,6.93
2018-03-24T00:40:05.036Z,7.17
2018-03-24T00:42:37.567Z,6.40
2018-03-24T00:45:10.345Z,7.33
2018-03-24T00:47:42.751Z,6.37
2018-03-24T00:50:15.989Z,7.50
2018-03-24T00:52:48.675Z,7.10
2018-03-24T00:55:21.301Z,7.00
2018-03-24T00:57:54.132Z,7.20
2018-03-24T01:00:27.236Z,7.43
2018-03-24T01:03:00.172Z,7.83
2018-03-24T01:05:32.886Z,6.97
2018-03-24T01:08:05.724Z,7.33
2018-03-24T01:10:38.443Z,7.30
2018-03-24T01:13:11.118Z,7.03
2018-03-24T01:15:43.742Z,6.70
2018-03-24T01:18:16.702Z,6.90
2018-03-24T01:20:49.151Z,7.03
2018-03-24T01:23:22.790Z,7.53
2018-03-24T01:25:56.300Z,7.40
2018-03-24T01:28:28.698Z,7.40
2018-03-24T01:31:03.408Z,8.67
2018-03-24T01:33:36.278Z,8.07
2018-03-24T01:36:08.933Z,7.50
2018-03-24T01:38:41.448Z,7.70
2018-03-24T01:41:14.971Z,8.17
2018-03-24T01:43:47.459Z,7.40
2018-03-24T01:46:20.070Z,7.60
2018-03-24T01:48:52.541Z,7.43
2018-03-24T01:51:24.835Z,7.67
2018-03-24T01:53:57.460Z,7.70
2018-03-24T01:56:29.965Z,8.27
2018-03-24T01:59:02.552Z,8.07
2018-03-24T02:01:35.667Z,7.60
2018-03-24T02:04:08.359Z,8.23
2018-03-24T02:06:41.258Z,8.30
2018-03-24T02:09:14.441Z,7.40
2018-03-24T02:11:47.483Z,7.80
2018-03-24T02:14:20.270Z,8.57
2018-03-24T02:16:52.753Z,7.97
2018-03-24T02:19:27.797Z,7.67
2018-03-24T02:22:00.572Z,8.13
2018-03-24T02:24:34.152Z,8.37
2018-03-24T02:27:07.574Z,7.97
2018-03-24T02:29:40.146Z,7.80
2018-03-24T02:32:12.602Z,8.00
2018-03-24T02:34:46.453Z,8.40
2018-03-24T02:37:18.846Z,7.60
2018-03-24T02:39:51.214Z,8.83
2018-03-24T02:42:24.175Z,8.63
2018-03-24T02:44:56.592Z,8.33
2018-03-24T02:47:29.207Z,8.07
2018-03-24T02:50:02.661Z,7.37
2018-03-24T02:52:35.015Z,8.07
2018-03-24T02:55:07.536Z,7.67
2018-03-24T02:57:40.184Z,7.37
2018-03-24T03:00:12.557Z,7.57
2018-03-24T03:02:45.105Z,7.77
2018-03-24T03:05:17.853Z,7.40
2018-03-24T03:07:50.432Z,7.60
2018-03-24T03:10:22.776Z,7.77
2018-03-24T03:12:55.290Z,7.03
2018-03-24T03:15:28.011Z,7.37
2018-03-24T03:18:00.768Z,7.80
2018-03-24T03:20:33.322Z,8.43
2018-03-24T03:23:05.804Z,7.90
2018-03-24T03:25:38.528Z,8.10
2018-03-24T03:28:11.257Z,7.77
2018-03-24T03:30:43.929Z,7.23
2018-03-24T03:33:16.462Z,7.47
2018-03-24T03:35:49.094Z,8.43
2018-03-24T03:38:21.566Z,8.50
2018-03-24T03:40:54.204Z,6.93
2018-03-24T03:43:27.031Z,8.23
2018-03-24T03:45:59.421Z,8.17
2018-03-24T03:48:32.025Z,7.87
2018-03-24T03:51:04.784Z,6.83
2018-03-24T03:53:37.382Z,7.27
2018-03-24T03:56:09.782Z,7.77
2018-03-24T03:58:42.443Z,7.50
2018-03-24T04:01:15.079Z,7.37
2018-03-24T04:03:47.493Z,7.03
2018-03-24T04:06:21.224Z,7.50
2018-03-24T04:08:53.751Z,8.27
2018-03-24T04:11:26.264Z,7.50
2018-03-24T04:13:59.388Z,8.07
2018-03-24T04:16:31.679Z,6.43
2018-03-24T04:19:04.173Z,8.03
2018-03-24T04:21:36.894Z,7.57
2018-03-24T04:24:09.243Z,7.87
2018-03-24T04:26:43.981Z,13.50
2018-03-24T04:29:16.607Z,8.20
2018-03-24T04:31:49.204Z,7.80
2018-03-24T04:34:21.629Z,7.10
2018-03-24T04:36:54.215Z,7.43
2018-03-24T04:39:27.488Z,7.60
2018-03-24T04:42:00.310Z,8.43
2018-03-24T04:44:32.645Z,7.70
2018-03-24T04:47:05.036Z,8.03
2018-03-24T04:49:37.700Z,7.13
2018-03-24T04:52:10.330Z,7.97
2018-03-24T04:54:42.819Z,6.87
2018-03-24T04:57:15.533Z,7.03
2018-03-24T04:59:47.931Z,6.87
2018-03-24T05:02:20.520Z,7.97
2018-03-24T05:04:53.183Z,7.97
2018-03-24T05:07:25.796Z,7.60
2018-03-24T05:09:58.161Z,7.47
2018-03-24T05:12:30.958Z,7.57
2018-03-24T05:15:03.658Z,7.37
2018-03-24T05:17:35.955Z,9.17
2018-03-24T05:20:09.490Z,8.10
2018-03-24T05:22:42.000Z,7.40
2018-03-24T05:25:15.382Z,8.10
2018-03-24T05:27:49.816Z,7.60
2018-03-24T05:30:22.316Z,7.57
2018-03-24T05:32:54.771Z,7.80
2018-03-24T05:35:28.572Z,7.80
2018-03-24T05:38:01.084Z,7.73
2018-03-24T05:40:33.747Z,7.30
2018-03-24T05:43:07.379Z,7.23
2018-03-24T05:45:40.169Z,7.90
2018-03-24T05:48:12.566Z,7.50
2018-03-24T05:50:45.323Z,7.17
2018-03-24T05:53:17.795Z,7.60
2018-03-24T05:55:50.436Z,7.60
2018-03-24T05:58:23.112Z,9.30
2018-03-24T06:00:55.798Z,8.10
2018-03-24T06:03:28.536Z,8.47
2018-03-24T06:06:01.332Z,8.63
2018-03-24T06:08:33.876Z,7.80
2018-03-24T06:11:06.569Z,7.57
2018-03-24T06:13:39.415Z,7.57
2018-03-24T06:16:12.326Z,8.37
2018-03-24T06:18:44.912Z,8.50
2018-03-24T06:21:19.570Z,7.80
2018-03-24T06:23:52.826Z,8.80
2018-03-24T06:26:25.605Z,8.70
2018-03-24T06:28:58.511Z,9.00
2018-03-24T06:31:32.243Z,9.30
2018-03-24T06:34:05.752Z,9.17
2018-03-24T06:36:38.593Z,9.67
2018-03-24T06:39:11.402Z,10.43
2018-03-24T06:41:44.399Z,11.50
2018-03-24T06:44:17.546Z,10.73
2018-03-24T06:46:50.511Z,10.77
2018-03-24T06:49:30.359Z,9.87
2018-03-24T06:52:10.371Z,10.00
2018-03-24T06:54:50.419Z,10.00
2018-03-24T06:57:23.621Z,10.43
2018-03-24T06:59:56.679Z,10.20
2018-03-24T07:02:29.808Z,10.20
2018-03-24T07:05:09.069Z,10.33
2018-03-24T07:07:49.310Z,10.33
2018-03-24T07:10:23.182Z,9.93
2018-03-24T07:13:02.750Z,10.97
2018-03-24T07:15:36.011Z,10.17
2018-03-24T07:18:09.077Z,11.07
2018-03-24T07:20:42.233Z,10.50
2018-03-24T07:23:15.144Z,11.50
2018-03-24T07:25:48.678Z,11.80
2018-03-24T07:28:29.075Z,10.83
2018-03-24T07:31:01.898Z,11.60
2018-03-24T07:40:43.381Z,12.90
2018-03-24T07:43:49.253Z,14.23
2018-03-24T07:47:09.480Z,14.73
2018-03-24T07:50:08.897Z,15.27
2018-03-24T07:53:10.902Z,15.77
2018-03-24T07:56:09.041Z,17.10
2018-03-24T07:59:27.038Z,19.77
2018-03-24T08:02:51.626Z,16.10
2018-03-24T08:06:34.956Z,17.20
2018-03-24T08:10:24.720Z,14.87
2018-03-24T08:13:29.675Z,17.77
2018-03-24T08:17:05.572Z,23.63
2018-03-24T08:20:59.430Z,17.53
2018-03-24T08:33:52.533Z,33.33
2018-03-24T08:38:20.938Z,30.57
2018-03-24T08:41:27.371Z,16.37
2018-03-24T08:44:40.881Z,12.73
2018-03-24T08:47:43.420Z,11.60
2018-03-24T08:50:54.500Z,12.93
2018-03-24T08:55:38.181Z,16.60
2018-03-24T08:59:08.535Z,15.90
2018-03-24T09:02:19.502Z,25.80
2018-03-24T09:05:12.666Z,14.97
2018-03-24T09:08:17.544Z,13.73
2018-03-24T09:11:38.929Z,13.13
2018-03-24T09:43:08.132Z,9.73
2018-03-24T10:21:31.747Z,6.83
2018-03-24T10:24:08.976Z,7.77
2018-03-24T10:26:41.718Z,7.23
2018-03-24T10:29:20.055Z,9.07
2018-03-24T10:31:58.548Z,8.20
2018-03-24T10:34:31.352Z,8.53
2018-03-24T10:37:05.106Z,7.17
2018-03-24T10:39:38.122Z,7.33
2018-03-24T10:42:10.931Z,7.53
2018-03-24T10:44:45.025Z,7.10
2018-03-24T10:47:17.981Z,7.47
2018-03-24T10:49:51.463Z,7.07
2018-03-24T10:52:37.223Z,6.90
2018-03-24T10:55:11.191Z,7.93
2018-03-24T10:57:44.604Z,8.13
2018-03-24T11:00:27.050Z,8.33
2018-03-24T11:03:00.299Z,8.37
2018-03-24T11:05:33.732Z,7.37
2018-03-24T11:08:10.598Z,7.70
2018-03-24T11:10:44.570Z,7.90
2018-03-24T11:13:20.336Z,7.20
2018-03-24T11:16:00.977Z,7.17
2018-03-24T11:18:34.590Z,7.57
2018-03-24T11:21:17.829Z,7.40
2018-03-24T11:24:04.622Z,7.67
2018-03-24T11:26:37.602Z,8.37
2018-03-24T11:29:10.946Z,8.47
2018-03-24T11:31:45.016Z,8.33
2018-03-24T11:34:18.796Z,7.07
2018-03-24T11:36:52.322Z,7.47
2018-03-24T11:39:25.301Z,7.03
2018-03-24T11:41:58.300Z,7.87
2018-03-24T11:44:31.961Z,7.20
2018-03-24T11:47:06.329Z,7.27
2018-03-24T11:49:39.867Z,7.40
2018-03-24T11:52:13.057Z,8.17
2018-03-24T11:54:47.042Z,8.17
2018-03-24T11:57:21.594Z,8.33
2018-03-24T11:59:54.533Z,7.97
2018-03-24T12:02:27.764Z,7.80
2018-03-24T12:05:00.603Z,8.67
2018-03-24T12:07:33.507Z,8.53
2018-03-24T12:10:06.436Z,8.20
2018-03-24T12:12:42.192Z,8.37
2018-03-24T12:15:26.950Z,9.23
2018-03-24T12:18:07.104Z,7.57
2018-03-24T12:20:48.072Z,8.70
2018-03-24T12:23:21.820Z,9.50
2018-03-24T12:25:55.683Z,8.30
2018-03-24T12:28:36.301Z,8.27
2018-03-24T12:31:11.672Z,9.30
2018-03-24T12:33:55.227Z,7.50
2018-03-24T12:36:35.628Z,8.13
2018-03-24T12:39:14.768Z,8.50
2018-03-24T12:41:48.364Z,8.57
2018-03-24T12:44:37.296Z,7.97
2018-03-24T12:47:25.434Z,7.47
2018-03-24T12:49:59.139Z,8.40
2018-03-24T12:55:50.243Z,8.30
2018-03-24T12:58:35.062Z,8.07
2018-03-24T13:01:08.004Z,9.03
2018-03-24T13:03:42.742Z,7.90
2018-03-24T13:06:26.150Z,8.00
2018-03-24T13:09:06.668Z,7.50
2018-03-24T13:11:52.514Z,8.07
2018-03-24T13:14:33.314Z,8.07
2018-03-24T13:17:07.048Z,8.27
2018-03-24T13:19:40.558Z,7.57
2018-03-24T13:22:25.539Z,8.80
2018-03-24T13:25:07.645Z,8.37
2018-03-24T13:27:51.410Z,10.27
2018-03-24T13:30:34.916Z,8.73
2018-03-24T13:33:09.185Z,8.77
2018-03-24T13:35:42.392Z,10.37
2018-03-24T13:38:15.355Z,9.57
2018-03-24T13:40:49.457Z,9.23
2018-03-24T13:43:23.278Z,9.50
2018-03-24T13:45:56.320Z,10.23
2018-03-24T13:48:30.375Z,10.87
2018-03-24T13:51:14.817Z,9.30
2018-03-24T13:54:13.007Z,10.95
2018-03-24T13:56:46.707Z,10.43
2018-03-24T13:59:19.916Z,9.70
2018-03-24T14:01:54.226Z,11.40
2018-03-24T14:04:27.479Z,10.40
2018-03-24T14:07:13.947Z,9.10
2018-03-24T14:10:03.570Z,9.20
2018-03-24T14:12:44.256Z,8.37
2018-03-24T14:15:18.249Z,9.07
2018-03-24T14:18:01.603Z,8.40
2018-03-24T14:20:49.499Z,8.40
2018-03-24T14:23:22.891Z,9.03
2018-03-24T14:25:55.900Z,8.53
2018-03-24T14:28:29.374Z,8.40
2018-03-24T14:31:02.930Z,8.73
2018-03-24T14:33:35.937Z,9.20
2018-03-24T14:36:16.313Z,9.20
2018-03-24T14:38:49.482Z,9.87
2018-03-24T14:41:22.547Z,9.70
2018-03-24T14:43:55.537Z,9.23
2018-03-24T14:46:28.603Z,9.67
2018-03-24T14:49:03.858Z,8.93
2018-03-24T14:51:40.040Z,9.43
2018-03-24T14:54:13.471Z,9.82
2018-03-24T14:56:46.470Z,9.37
2018-03-24T14:59:19.823Z,9.37
2018-03-24T15:01:53.936Z,9.53
2018-03-24T15:04:38.713Z,9.00
2018-03-24T15:07:13.203Z,10.23
2018-03-24T15:09:46.055Z,9.83
2018-03-24T15:12:23.658Z,9.70
2018-03-24T15:14:57.658Z,9.93
2018-03-24T15:17:31.151Z,9.53
2018-03-24T15:20:11.743Z,9.83
2018-03-24T15:22:45.693Z,9.93
2018-03-24T15:25:31.257Z,9.83
2018-03-24T15:28:05.095Z,10.77
2018-03-24T15:32:53.454Z,10.90
2018-03-24T15:35:31.525Z,10.20
2018-03-24T15:38:15.710Z,10.90
2018-03-24T15:41:00.895Z,10.33
2018-03-24T15:43:33.920Z,10.50
2018-03-24T15:46:07.313Z,11.37
2018-03-24T15:48:41.306Z,10.70
2018-03-24T15:51:15.963Z,9.40
2018-03-24T15:53:49.630Z,9.40
2018-03-24T15:56:22.708Z,11.60
2018-03-24T15:58:56.714Z,10.43
2018-03-24T16:01:31.023Z,9.53
2018-03-24T16:04:05.102Z,10.80
2018-03-24T16:06:37.926Z,10.47
2018-03-24T16:09:11.667Z,10.37
2018-03-24T16:11:44.765Z,10.30
2018-03-24T16:14:17.775Z,9.77
2018-03-24T16:17:03.588Z,9.93
2018-03-24T16:19:45.732Z,10.60
2018-03-24T16:22:18.743Z,9.73
2018-03-24T16:24:52.560Z,9.53
2018-03-24T16:27:27.954Z,9.50
2018-03-24T16:30:00.769Z,10.83
2018-03-24T16:32:33.587Z,10.10
2018-03-24T16:35:06.992Z,10.47
2018-03-24T16:37:40.460Z,10.17
2018-03-24T16:40:18.315Z,10.67
2018-03-24T16:42:51.291Z,10.47
2018-03-24T16:45:24.332Z,11.10
2018-03-24T16:47:59.555Z,10.17
2018-03-24T16:50:32.607Z,11.00
2018-03-24T16:53:05.851Z,10.03
2018-03-24T16:55:39.296Z,10.80
2018-03-24T16:58:12.370Z,10.70
2018-03-24T17:00:46.090Z,11.00
2018-03-24T17:03:30.873Z,10.70
2018-03-24T17:06:04.254Z,12.23
2018-03-24T17:08:37.337Z,11.60
2018-03-24T17:11:11.744Z,13.93
2018-03-24T17:13:45.142Z,11.93
2018-03-24T17:16:42.015Z,12.37
2018-03-24T17:19:17.964Z,12.43
2018-03-24T17:21:51.029Z,13.13
2018-03-24T17:24:29.915Z,13.67
2018-03-24T17:27:03.760Z,13.60
2018-03-24T17:29:38.661Z,14.60
2018-03-24T17:32:16.106Z,13.30
2018-03-24T17:34:49.987Z,13.07
2018-03-24T17:37:24.329Z,14.10
2018-03-24T17:39:57.927Z,14.40
2018-03-24T17:42:31.478Z,14.97
2018-03-24T17:45:04.902Z,16.83
2018-03-24T17:47:38.599Z,14.90
2018-03-24T17:50:11.747Z,16.57
2018-03-24T17:52:45.022Z,16.93
2018-03-24T17:55:18.963Z,17.63
2018-03-24T17:57:52.141Z,16.03
2018-03-24T18:00:25.215Z,16.57
2018-03-24T18:03:07.832Z,15.90
2018-03-24T18:05:41.285Z,20.17
2018-03-24T18:08:14.669Z,18.13
2018-03-24T18:10:48.214Z,16.13
2018-03-24T18:13:21.356Z,15.27
2018-03-24T18:15:54.922Z,20.30
2018-03-24T18:18:27.842Z,18.33
2018-03-24T18:21:01.002Z,18.37
2018-03-24T18:23:34.328Z,15.17
2018-03-24T18:26:07.145Z,15.40
2018-03-24T18:28:40.362Z,16.13
2018-03-24T18:31:22.267Z,15.10
2018-03-24T18:33:55.149Z,14.77
2018-03-24T18:36:28.683Z,15.93
2018-03-24T18:39:08.194Z,16.50
2018-03-24T18:41:41.429Z,15.17
2018-03-24T18:44:14.315Z,15.57
2018-03-24T18:46:51.188Z,18.13
2018-03-24T18:49:24.782Z,18.37
2018-03-24T18:51:57.809Z,22.83
2018-03-24T18:54:37.876Z,22.07
2018-03-24T18:57:16.325Z,16.73
2018-03-24T18:59:50.118Z,15.27
2018-03-24T19:02:25.547Z,16.00
2018-03-24T19:04:59.744Z,16.00
2018-03-24T19:07:35.447Z,19.07
2018-03-24T19:10:13.034Z,17.07
2018-03-24T19:12:46.337Z,16.40
2018-03-24T19:15:19.386Z,16.57
2018-03-24T19:17:52.318Z,16.10
2018-03-24T19:20:25.481Z,17.83
2018-03-24T19:22:59.101Z,16.77
2018-03-24T19:25:32.240Z,16.00
2018-03-24T19:28:09.037Z,19.90
2018-03-24T19:30:44.052Z,17.47
2018-03-24T19:33:17.020Z,19.73
2018-03-24T19:35:50.265Z,25.77
2018-03-24T19:38:23.840Z,20.80
2018-03-24T19:40:57.522Z,19.07
2018-03-24T19:43:30.634Z,18.20
2018-03-24T19:46:03.484Z,17.23
2018-03-24T19:48:36.556Z,17.67
2018-03-24T19:51:09.656Z,17.63
2018-03-24T19:53:43.587Z,18.40
2018-03-24T19:56:16.779Z,29.17
2018-03-24T19:58:50.119Z,17.87
2018-03-24T20:01:23.365Z,19.97
2018-03-24T20:03:56.317Z,19.37
2018-03-24T20:06:29.524Z,19.33
2018-03-24T20:09:02.539Z,18.83
2018-03-24T20:11:38.311Z,19.00
2018-03-24T20:14:11.597Z,20.97
2018-03-24T20:16:45.400Z,19.37
2018-03-24T20:19:18.315Z,17.97
2018-03-24T20:21:51.648Z,25.27
2018-03-24T20:24:25.605Z,25.60
2018-03-24T20:26:58.496Z,23.63
2018-03-24T20:29:32.173Z,21.00
2018-03-24T20:32:05.240Z,18.43
2018-03-24T20:34:38.321Z,19.27
2018-03-24T20:37:12.019Z,18.33
2018-03-24T20:39:45.302Z,17.17
2018-03-24T20:42:18.923Z,18.40
2018-03-24T20:44:51.853Z,18.70
2018-03-24T20:47:25.033Z,17.40
2018-03-24T20:49:57.866Z,22.43
2018-03-24T20:52:31.365Z,22.77
2018-03-24T20:55:06.227Z,20.73
2018-03-24T20:57:39.354Z,21.37
2018-03-24T21:00:12.187Z,19.83
2018-03-24T21:02:45.819Z,22.50
2018-03-24T21:05:19.016Z,21.23
2018-03-24T21:07:51.676Z,21.13
2018-03-24T21:10:25.633Z,21.30
2018-03-24T21:12:58.602Z,22.07
2018-03-24T21:15:31.551Z,30.60
2018-03-24T21:18:04.460Z,18.90
2018-03-24T21:20:40.778Z,19.20
2018-03-24T21:23:13.976Z,20.37
2018-03-24T21:25:46.733Z,23.30
2018-03-24T21:28:20.864Z,22.63
2018-03-24T21:30:54.026Z,17.23
2018-03-24T21:33:27.940Z,15.73
2018-03-24T21:36:01.191Z,13.90
2018-03-24T21:38:33.979Z,16.00
2018-03-24T21:41:07.570Z,19.27
2018-03-24T21:43:40.757Z,24.47
2018-03-24T21:46:14.386Z,25.80
2018-03-24T21:48:47.804Z,40.80
2018-03-24T21:51:20.867Z,21.83
2018-03-24T21:53:54.598Z,23.40
2018-03-24T21:56:33.446Z,29.90
2018-03-24T21:59:09.687Z,35.83
2018-03-24T22:01:47.988Z,27.87
2018-03-24T22:04:25.013Z,24.03
2018-03-24T22:09:50.723Z,50.30
2018-03-24T22:12:30.389Z,28.20
2018-03-24T22:15:03.353Z,22.60
2018-03-24T22:17:41.485Z,23.43
2018-03-24T22:20:18.517Z,29.37
2018-03-24T22:22:51.155Z,30.07
2018-03-24T22:25:23.830Z,19.93
2018-03-24T22:27:56.608Z,28.27
2018-03-24T22:30:29.411Z,20.93
2018-03-24T22:33:02.592Z,18.20
2018-03-24T22:35:36.094Z,17.63
2018-03-24T22:38:10.042Z,18.00
2018-03-24T22:40:42.583Z,21.37
2018-03-24T22:43:15.735Z,18.80
2018-03-24T22:46:01.918Z,21.70
2018-03-24T22:48:34.583Z,19.00
2018-03-24T22:51:07.216Z,20.67
2018-03-24T23:00:17.487Z,15.67
2018-03-24T23:02:50.179Z,16.50
2018-03-24T23:05:22.551Z,16.77
2018-03-24T23:07:58.942Z,14.73
2018-03-24T23:10:31.707Z,14.90
2018-03-24T23:13:04.192Z,17.00
2018-03-24T23:15:39.673Z,15.30
2018-03-24T23:18:12.214Z,19.73
2018-03-24T23:20:44.633Z,20.37
2018-03-24T23:23:19.969Z,23.37
2018-03-24T23:25:52.642Z,18.80
2018-03-24T23:28:25.216Z,17.17
2018-03-24T23:31:03.225Z,15.13
2018-03-24T23:33:35.954Z,15.27
2018-03-24T23:36:11.904Z,14.70
2018-03-24T23:38:44.887Z,15.10
2018-03-24T23:41:17.521Z,15.60
2018-03-24T23:43:49.931Z,14.87
2018-03-24T23:46:22.442Z,14.70
2018-03-24T23:49:03.756Z,15.27
2018-03-24T23:51:36.534Z,15.00
2018-03-24T23:54:09.077Z,16.57
2018-03-24T23:57:07.343Z,22.30
2018-03-24T23:59:40.090Z,16.63
